createdAt,value
2024-05-09T00:01:25.722Z,1.40
2024-05-09T00:03:55.831Z,1.00
2024-05-09T00:06:26.066Z,1.25
2024-05-09T00:09:22.027Z,1.42
2024-05-09T00:11:58.133Z,1.48
2024-05-09T00:14:28.645Z,1.38
2024-05-09T00:16:58.785Z,1.50
2024-05-09T00:19:28.955Z,1.40
2024-05-09T00:21:58.949Z,1.33
2024-05-09T00:24:29.152Z,1.20
2024-05-09T00:27:00.162Z,1.40
2024-05-09T00:29:30.977Z,1.40
2024-05-09T00:32:01.326Z,1.33
2024-05-09T00:34:31.835Z,1.60
2024-05-09T00:37:26.906Z,1.30
2024-05-09T00:39:57.364Z,1.30
2024-05-09T00:42:27.315Z,1.30
2024-05-09T00:44:57.282Z,1.92
2024-05-09T00:47:27.500Z,1.70
2024-05-09T00:49:58.580Z,1.55
2024-05-09T00:52:30.007Z,1.65
2024-05-09T00:55:01.239Z,1.85
2024-05-09T00:57:31.941Z,1.77
2024-05-09T01:00:04.762Z,2.08
2024-05-09T01:02:36.477Z,4.80
2024-05-09T01:05:07.257Z,1.67
2024-05-09T01:07:37.437Z,1.98
2024-05-09T01:10:13.942Z,1.90
2024-05-09T01:13:12.018Z,2.33
2024-05-09T01:15:42.801Z,2.35
2024-05-09T01:18:14.074Z,2.30
2024-05-09T01:20:47.076Z,2.10
2024-05-09T01:23:26.346Z,2.25
2024-05-09T01:25:56.519Z,2.30
2024-05-09T01:28:26.650Z,2.47
2024-05-09T01:30:56.594Z,2.40
2024-05-09T01:33:27.032Z,2.53
2024-05-09T01:35:57.831Z,2.22
2024-05-09T01:38:28.084Z,2.25
2024-05-09T01:40:58.160Z,2.53
2024-05-09T01:43:28.298Z,2.22
2024-05-09T01:45:58.414Z,2.45
2024-05-09T01:48:28.618Z,2.80
2024-05-09T01:50:59.043Z,2.28
2024-05-09T01:53:29.072Z,3.38
2024-05-09T01:55:59.072Z,2.42
2024-05-09T01:58:29.506Z,2.53
2024-05-09T02:00:59.641Z,2.17
2024-05-09T02:03:31.094Z,2.42
2024-05-09T02:06:07.762Z,2.63
2024-05-09T02:09:02.965Z,1.98
2024-05-09T02:11:47.640Z,2.35
2024-05-09T02:15:03.412Z,2.20
2024-05-09T02:17:35.772Z,2.10
2024-05-09T02:20:06.534Z,2.53
2024-05-09T02:22:36.860Z,2.10
2024-05-09T02:28:33.408Z,2.45
2024-05-09T02:31:05.516Z,2.00
2024-05-09T02:33:44.638Z,2.90
2024-05-09T02:36:15.087Z,2.78
2024-05-09T02:38:48.750Z,2.33
2024-05-09T02:41:47.032Z,2.65
2024-05-09T02:44:17.051Z,2.40
2024-05-09T02:46:49.189Z,2.80
2024-05-09T02:49:20.082Z,2.55
2024-05-09T02:51:50.777Z,2.92
2024-05-09T02:54:20.775Z,2.65
2024-05-09T02:56:50.667Z,2.92
2024-05-09T02:59:20.570Z,3.53
2024-05-09T03:01:50.883Z,2.58
2024-05-09T03:04:25.178Z,2.45
2024-05-09T03:06:58.780Z,2.17
2024-05-09T03:09:29.275Z,2.50
2024-05-09T03:11:59.388Z,2.25
2024-05-09T03:14:30.204Z,1.80
2024-05-09T03:17:00.963Z,1.92
2024-05-09T03:19:31.504Z,2.50
2024-05-09T03:22:04.465Z,2.08
2024-05-09T03:24:34.697Z,1.90
2024-05-09T03:27:05.187Z,1.40
2024-05-09T03:29:35.462Z,1.08
2024-05-09T03:32:05.731Z,1.35
2024-05-09T03:34:41.276Z,1.50
2024-05-09T03:37:11.583Z,1.10
2024-05-09T03:39:43.037Z,1.45
2024-05-09T03:42:14.552Z,1.35
2024-05-09T03:44:45.108Z,1.52
2024-05-09T03:47:16.029Z,1.20
2024-05-09T03:49:47.140Z,1.48
2024-05-09T03:52:18.952Z,1.33
2024-05-09T03:54:49.152Z,1.35
2024-05-09T03:57:20.228Z,1.15
2024-05-09T03:59:50.888Z,1.55
2024-05-09T04:02:21.134Z,1.25
2024-05-09T04:04:51.297Z,1.67
2024-05-09T04:07:21.458Z,1.30
2024-05-09T04:09:54.557Z,1.40
2024-05-09T04:12:25.996Z,1.80
2024-05-09T04:14:56.150Z,1.52
2024-05-09T04:17:26.278Z,1.30
2024-05-09T04:19:56.485Z,1.50
2024-05-09T04:22:26.777Z,2.20
2024-05-09T04:25:22.297Z,1.52
2024-05-09T04:27:56.745Z,1.67
2024-05-09T04:30:52.617Z,1.60
2024-05-09T04:33:23.852Z,1.48
2024-05-09T04:35:55.787Z,1.65
2024-05-09T04:38:26.047Z,1.67
2024-05-09T04:40:56.031Z,1.50
2024-05-09T04:43:26.193Z,1.60
2024-05-09T04:45:56.645Z,1.40
2024-05-09T04:48:26.941Z,1.50
2024-05-09T04:50:57.014Z,1.67
2024-05-09T04:53:27.940Z,1.40
2024-05-09T04:55:58.421Z,1.45
2024-05-09T04:58:28.556Z,1.60
2024-05-09T05:00:58.801Z,1.50
2024-05-09T05:03:29.060Z,1.85
2024-05-09T05:05:59.645Z,1.45
2024-05-09T05:08:29.743Z,2.05
2024-05-09T05:10:59.920Z,1.40
2024-05-09T05:13:33.896Z,1.10
2024-05-09T05:16:04.653Z,1.63
2024-05-09T05:18:34.591Z,1.50
2024-05-09T05:21:04.585Z,1.65
2024-05-09T05:23:34.790Z,1.60
2024-05-09T05:26:06.962Z,1.50
2024-05-09T05:28:37.054Z,1.23
2024-05-09T05:31:06.965Z,1.48
2024-05-09T05:33:36.997Z,1.33
2024-05-09T05:36:35.546Z,1.67
2024-05-09T05:39:06.219Z,1.52
2024-05-09T05:41:36.122Z,1.83
2024-05-09T05:44:06.542Z,1.60
2024-05-09T05:46:36.654Z,1.63
2024-05-09T05:49:06.769Z,1.55
2024-05-09T05:51:37.395Z,1.77
2024-05-09T05:54:07.517Z,1.70
2024-05-09T05:56:39.960Z,1.90
2024-05-09T06:02:42.210Z,1.40
2024-05-09T06:05:12.483Z,1.77
2024-05-09T06:07:42.448Z,2.67
2024-05-09T06:10:17.642Z,1.60
2024-05-09T06:12:54.404Z,1.33
2024-05-09T06:15:25.143Z,1.50
2024-05-09T06:17:55.439Z,1.70
2024-05-09T06:20:34.559Z,1.40
2024-05-09T06:23:11.329Z,1.33
2024-05-09T06:25:43.047Z,1.25
2024-05-09T06:28:13.864Z,1.25
2024-05-09T06:30:43.964Z,1.25
2024-05-09T06:33:15.839Z,1.27
2024-05-09T06:35:48.120Z,0.95
2024-05-09T06:38:21.776Z,1.25
2024-05-09T06:41:16.926Z,1.23
2024-05-09T06:43:47.192Z,1.60
2024-05-09T06:46:17.379Z,1.50
2024-05-09T06:48:49.461Z,1.08
2024-05-09T06:51:20.815Z,1.10
2024-05-09T06:53:50.881Z,1.40
2024-05-09T06:56:21.067Z,0.93
2024-05-09T06:58:51.715Z,1.13
2024-05-09T07:01:21.994Z,0.93
2024-05-09T07:03:51.943Z,0.80
2024-05-09T07:06:22.283Z,1.00
2024-05-09T07:08:52.641Z,1.10
2024-05-09T07:11:23.185Z,1.02
2024-05-09T07:13:53.341Z,1.17
2024-05-09T07:16:23.296Z,1.10
2024-05-09T07:18:56.526Z,1.02
2024-05-09T07:21:27.294Z,1.27
2024-05-09T07:23:57.686Z,1.00
2024-05-09T07:26:27.799Z,1.30
2024-05-09T07:28:57.783Z,1.17
2024-05-09T07:31:53.339Z,1.05
2024-05-09T07:34:24.082Z,1.20
2024-05-09T07:36:54.623Z,1.20
2024-05-09T07:39:24.751Z,1.08
2024-05-09T07:41:55.775Z,1.20
2024-05-09T07:44:25.746Z,1.17
2024-05-09T07:48:13.990Z,1.00
2024-05-09T07:53:32.563Z,1.02
2024-05-09T07:55:20.007Z,1.20
2024-05-09T07:57:50.284Z,0.77
2024-05-09T08:00:27.146Z,0.93
2024-05-09T08:03:01.923Z,1.20
2024-05-09T08:05:57.264Z,1.35
2024-05-09T08:08:27.541Z,1.30
2024-05-09T08:10:57.423Z,1.10
2024-05-09T08:13:28.625Z,1.10
2024-05-09T08:15:59.993Z,1.05
2024-05-09T08:18:31.190Z,1.10
2024-05-09T08:21:01.656Z,1.05
2024-05-09T08:23:31.530Z,1.40
2024-05-09T08:26:02.608Z,1.10
2024-05-09T08:28:33.293Z,1.35
2024-05-09T08:31:06.713Z,1.13
2024-05-09T08:33:37.678Z,0.90
2024-05-09T08:36:33.384Z,1.17
2024-05-09T08:39:03.618Z,1.02
2024-05-09T08:41:58.465Z,1.15
2024-05-09T08:44:29.007Z,1.00
2024-05-09T08:46:59.899Z,0.85
2024-05-09T08:49:31.473Z,0.77
2024-05-09T08:52:01.712Z,1.10
2024-05-09T08:54:34.923Z,1.50
2024-05-09T08:57:07.033Z,1.23
2024-05-09T08:59:38.365Z,1.20
2024-05-09T09:02:34.756Z,1.50
2024-05-09T09:05:18.080Z,1.70
2024-05-09T09:07:53.569Z,1.00
2024-05-09T09:10:40.107Z,1.40
2024-05-09T09:13:12.370Z,1.38
2024-05-09T09:18:20.461Z,0.98
2024-05-09T09:20:51.409Z,1.25
2024-05-09T09:23:22.573Z,1.40
2024-05-09T09:25:53.229Z,1.10
2024-05-09T09:28:25.690Z,1.42
2024-05-09T09:31:02.149Z,1.20
2024-05-09T09:33:37.658Z,1.00
2024-05-09T09:37:10.405Z,1.25
2024-05-09T09:39:43.212Z,1.33
2024-05-09T09:45:12.378Z,1.23
2024-05-09T09:47:44.590Z,1.30
2024-05-09T09:50:24.094Z,1.30
2024-05-09T09:53:02.701Z,1.20
2024-05-09T09:55:35.064Z,1.20
2024-05-09T10:00:40.221Z,1.40
2024-05-09T10:03:10.670Z,1.35
2024-05-09T10:05:44.015Z,1.90
2024-05-09T10:10:52.581Z,1.10
2024-05-09T10:13:35.576Z,1.30
2024-05-09T10:16:33.546Z,1.13
2024-05-09T10:19:04.171Z,1.00
2024-05-09T10:21:35.033Z,1.33
2024-05-09T10:24:11.116Z,1.63
2024-05-09T10:26:43.476Z,1.30
2024-05-09T10:29:44.878Z,1.13
2024-05-09T10:32:17.814Z,1.27
2024-05-09T10:35:40.603Z,1.85
2024-05-09T10:38:42.361Z,1.38
2024-05-09T10:42:18.987Z,1.55
2024-05-09T10:44:49.268Z,1.25
2024-05-09T10:47:23.769Z,1.40
2024-05-09T10:50:00.690Z,1.70
2024-05-09T10:52:31.508Z,1.88
2024-05-09T10:55:05.698Z,1.65
2024-05-09T10:57:42.229Z,1.45
2024-05-09T11:00:23.244Z,1.30
2024-05-09T11:03:00.409Z,1.38
2024-05-09T11:05:31.708Z,1.45
2024-05-09T11:08:02.266Z,1.50
2024-05-09T11:10:34.306Z,1.65
2024-05-09T11:13:09.575Z,1.10
2024-05-09T11:15:43.525Z,1.20
2024-05-09T11:18:28.719Z,1.40
2024-05-09T11:21:00.765Z,1.63
2024-05-09T11:23:31.496Z,1.38
2024-05-09T11:26:02.194Z,1.35
2024-05-09T11:28:38.752Z,1.77
2024-05-09T11:31:11.074Z,1.38
2024-05-09T11:36:12.289Z,1.33
2024-05-09T11:38:42.895Z,1.15
2024-05-09T11:41:19.610Z,1.02
2024-05-09T11:43:49.761Z,1.50
2024-05-09T11:46:44.093Z,1.17
2024-05-09T11:49:40.172Z,1.10
2024-05-09T11:52:10.736Z,1.20
2024-05-09T11:54:40.982Z,1.95
2024-05-09T11:57:11.559Z,1.42
2024-05-09T11:59:41.809Z,1.45
2024-05-09T12:02:11.971Z,1.75
2024-05-09T12:04:42.530Z,1.40
2024-05-09T12:07:13.079Z,1.67
2024-05-09T12:09:45.191Z,1.67
2024-05-09T12:12:16.966Z,1.33
2024-05-09T12:14:47.078Z,1.40
2024-05-09T12:17:17.009Z,1.15
2024-05-09T12:19:46.969Z,1.42
2024-05-09T12:22:17.252Z,1.10
2024-05-09T12:24:48.682Z,0.98
2024-05-09T12:27:19.279Z,1.25
2024-05-09T12:29:49.627Z,1.40
2024-05-09T12:32:19.594Z,1.10
2024-05-09T12:34:49.445Z,1.40
2024-05-09T12:37:20.288Z,1.50
2024-05-09T12:39:51.003Z,1.48
2024-05-09T12:42:27.274Z,1.00
2024-05-09T12:44:58.976Z,1.55
2024-05-09T12:47:29.144Z,2.45
2024-05-09T12:49:59.652Z,2.63
2024-05-09T12:52:31.266Z,1.73
2024-05-09T12:55:01.771Z,1.63
2024-05-09T12:57:32.010Z,2.38
2024-05-09T13:02:32.243Z,1.40
2024-05-09T13:05:02.738Z,1.80
2024-05-09T13:07:33.354Z,1.17
2024-05-09T13:10:04.642Z,1.50
2024-05-09T13:12:36.923Z,1.63
2024-05-09T13:15:07.634Z,1.40
2024-05-09T13:17:37.602Z,1.85
2024-05-09T13:20:11.997Z,1.65
2024-05-09T13:22:49.838Z,1.60
2024-05-09T13:25:22.334Z,1.30
2024-05-09T13:27:53.810Z,1.23
2024-05-09T13:30:29.857Z,1.50
2024-05-09T13:33:10.667Z,1.50
2024-05-09T13:35:49.100Z,1.20
2024-05-09T13:38:21.615Z,1.42
2024-05-09T13:40:51.795Z,1.40
2024-05-09T13:43:24.979Z,1.50
2024-05-09T13:45:58.569Z,1.90
2024-05-09T13:48:29.285Z,1.60
2024-05-09T13:50:59.394Z,1.90
2024-05-09T13:53:33.820Z,1.42
2024-05-09T13:56:04.574Z,1.20
2024-05-09T13:58:34.655Z,1.50
2024-05-09T14:01:04.913Z,1.50
2024-05-09T14:03:35.908Z,1.85
2024-05-09T14:06:32.330Z,1.52
2024-05-09T14:09:27.838Z,1.75
2024-05-09T14:11:57.766Z,1.25
2024-05-09T14:14:27.820Z,1.48
2024-05-09T14:16:58.265Z,1.40
2024-05-09T14:19:28.287Z,1.60
2024-05-09T14:21:58.359Z,1.42
2024-05-09T14:24:30.231Z,1.42
2024-05-09T14:27:00.391Z,2.72
2024-05-09T14:29:30.774Z,3.28
2024-05-09T14:32:02.854Z,2.22
2024-05-09T14:34:33.181Z,1.95
2024-05-09T14:37:04.082Z,1.75
2024-05-09T14:39:34.704Z,1.50
2024-05-09T14:42:05.139Z,1.90
2024-05-09T14:44:35.490Z,1.65
2024-05-09T14:47:05.726Z,1.90
2024-05-09T14:49:36.216Z,1.80
2024-05-09T14:52:06.446Z,1.85
2024-05-09T14:54:36.579Z,1.67
2024-05-09T14:57:06.846Z,1.50
2024-05-09T14:59:37.023Z,1.83
2024-05-09T15:02:07.628Z,2.67
2024-05-09T15:05:02.869Z,3.28
2024-05-09T15:07:33.238Z,2.00
2024-05-09T15:10:03.600Z,2.33
2024-05-09T15:12:35.271Z,2.10
2024-05-09T15:15:06.134Z,2.22
2024-05-09T15:17:36.925Z,2.30
2024-05-09T15:20:09.370Z,2.08
2024-05-09T15:22:40.180Z,1.70
2024-05-09T15:25:10.094Z,1.90
2024-05-09T15:27:40.326Z,1.83
2024-05-09T15:30:11.095Z,2.00
2024-05-09T15:32:41.248Z,1.85
2024-05-09T15:35:11.635Z,2.00
2024-05-09T15:37:42.251Z,2.95
2024-05-09T15:40:18.504Z,2.10
2024-05-09T15:42:55.952Z,2.17
2024-05-09T15:45:26.017Z,2.15
2024-05-09T15:50:35.934Z,2.13
2024-05-09T15:53:14.098Z,2.03
2024-05-09T15:55:44.497Z,1.92
2024-05-09T15:58:40.299Z,2.00
2024-05-09T16:01:10.795Z,1.95
2024-05-09T16:04:06.451Z,2.30
2024-05-09T16:11:01.147Z,2.22
2024-05-09T16:13:31.710Z,2.15
2024-05-09T16:16:05.212Z,2.05
2024-05-09T16:18:35.881Z,2.10
2024-05-09T16:21:07.552Z,1.95
2024-05-09T16:28:09.982Z,2.28
2024-05-09T16:31:05.555Z,2.08
2024-05-09T16:33:36.107Z,2.33
2024-05-09T16:36:09.069Z,3.00
2024-05-09T16:39:13.328Z,2.45
2024-05-09T16:41:44.265Z,2.55
2024-05-09T16:44:15.254Z,2.80
2024-05-09T16:46:45.225Z,2.60
2024-05-09T16:49:15.674Z,3.08
2024-05-09T16:52:10.605Z,3.15
2024-05-09T16:54:43.452Z,3.17
2024-05-09T16:57:13.520Z,3.10
2024-05-09T16:59:47.844Z,2.88
2024-05-09T17:02:18.090Z,4.78
2024-05-09T17:04:49.077Z,3.10
2024-05-09T17:07:19.676Z,3.55
2024-05-09T17:09:50.214Z,4.00
2024-05-09T17:12:20.263Z,5.32
2024-05-09T17:15:19.252Z,4.03
2024-05-09T17:17:52.038Z,4.15
2024-05-09T17:20:29.555Z,4.40
2024-05-09T17:23:05.848Z,4.38
2024-05-09T17:25:41.999Z,4.88
2024-05-09T17:28:16.735Z,5.20
2024-05-09T17:30:46.926Z,4.75
2024-05-09T17:33:17.202Z,4.97
2024-05-09T17:35:51.439Z,4.57
2024-05-09T17:38:24.490Z,4.60
2024-05-09T17:40:57.188Z,5.25
2024-05-09T17:43:27.466Z,5.63
2024-05-09T17:46:02.459Z,4.82
2024-05-09T17:49:14.713Z,5.47
2024-05-09T17:56:19.466Z,4.93
2024-05-09T17:58:51.133Z,5.13
2024-05-09T18:01:27.955Z,4.82
2024-05-09T18:03:58.685Z,4.82
2024-05-09T18:06:36.894Z,5.45
2024-05-09T18:09:11.382Z,5.28
2024-05-09T18:29:22.828Z,5.57
2024-05-09T18:31:53.526Z,5.45
2024-05-09T18:34:53.127Z,5.97
2024-05-09T18:37:29.181Z,5.22
2024-05-09T18:39:59.482Z,5.70
2024-05-09T18:42:29.477Z,5.03
2024-05-09T18:44:59.818Z,4.65
2024-05-09T18:47:31.279Z,5.82
2024-05-09T18:50:02.179Z,5.72
2024-05-09T18:52:37.282Z,5.38
2024-05-09T18:55:09.281Z,5.70
2024-05-09T18:57:39.851Z,5.03
2024-05-09T19:00:22.974Z,4.35
2024-05-09T19:03:02.114Z,3.67
2024-05-09T19:05:34.253Z,4.35
2024-05-09T19:08:05.097Z,4.32
2024-05-09T19:10:38.828Z,4.45
2024-05-09T19:13:14.360Z,4.68
2024-05-09T19:15:48.476Z,4.03
2024-05-09T19:18:26.055Z,4.43
2024-05-09T19:21:00.032Z,5.45
2024-05-09T19:23:35.336Z,5.22
2024-05-09T19:26:09.645Z,4.97
2024-05-09T19:28:41.552Z,5.05
2024-05-09T19:31:12.060Z,4.90
2024-05-09T19:33:43.047Z,5.15
2024-05-09T19:36:13.664Z,4.88
2024-05-09T19:38:43.590Z,5.03
2024-05-09T19:42:15.560Z,5.53
2024-05-09T19:44:47.964Z,5.13
2024-05-09T19:49:48.119Z,5.65
2024-05-09T19:52:18.023Z,5.63
2024-05-09T19:54:50.796Z,6.10
2024-05-09T19:57:21.401Z,5.88
2024-05-09T19:59:51.532Z,6.15
2024-05-09T20:02:21.715Z,6.10
2024-05-09T20:04:52.672Z,5.55
2024-05-09T20:07:28.065Z,5.78
2024-05-09T20:09:58.540Z,7.00
2024-05-09T20:12:32.057Z,5.28
2024-05-09T20:15:02.562Z,5.00
2024-05-09T20:17:32.531Z,4.95
2024-05-09T20:20:03.675Z,5.80
2024-05-09T20:22:35.683Z,4.82
2024-05-09T20:25:06.034Z,7.18
2024-05-09T20:27:39.694Z,10.98
2024-05-09T20:30:14.323Z,7.65
2024-05-09T20:32:46.670Z,6.05
2024-05-09T20:35:18.222Z,8.65
2024-05-09T20:37:49.026Z,6.80
2024-05-09T20:40:32.670Z,6.25
2024-05-09T20:43:08.120Z,6.47
2024-05-09T20:45:41.614Z,5.40
2024-05-09T20:48:21.453Z,6.40
2024-05-09T20:50:52.429Z,6.75
2024-05-09T20:53:23.093Z,6.60
2024-05-09T20:55:53.066Z,5.68
2024-05-09T20:58:23.142Z,6.13
2024-05-09T21:00:53.225Z,6.15
2024-05-09T21:03:23.539Z,6.78
2024-05-09T21:05:53.775Z,6.18
2024-05-09T21:08:25.208Z,5.95
2024-05-09T21:10:56.176Z,6.85
2024-05-09T21:13:26.230Z,6.97
2024-05-09T21:15:56.453Z,7.50
2024-05-09T21:18:26.643Z,7.22
2024-05-09T21:20:56.488Z,6.90
2024-05-09T21:23:26.825Z,5.75
2024-05-09T21:25:56.668Z,6.53
2024-05-09T21:28:27.236Z,6.85
2024-05-09T21:30:57.290Z,6.65
2024-05-09T21:33:27.741Z,7.13
2024-05-09T21:35:58.578Z,7.63
2024-05-09T21:38:29.378Z,6.28
2024-05-09T21:40:59.703Z,7.63
2024-05-09T21:43:32.589Z,7.95
2024-05-09T21:46:02.676Z,11.10
2024-05-09T21:48:32.709Z,11.35
2024-05-09T21:51:02.671Z,10.68
2024-05-09T21:53:34.475Z,9.32
2024-05-09T21:56:06.183Z,8.40
2024-05-09T21:58:36.322Z,7.57
2024-05-09T22:01:07.078Z,7.18
2024-05-09T22:03:37.527Z,7.70
2024-05-09T22:06:08.934Z,6.78
2024-05-09T22:08:39.751Z,6.47
2024-05-09T22:11:09.836Z,6.45
2024-05-09T22:13:40.045Z,6.15
2024-05-09T22:16:11.436Z,6.28
2024-05-09T22:18:42.334Z,6.30
2024-05-09T22:21:14.811Z,7.00
2024-05-09T22:23:45.103Z,7.28
2024-05-09T22:26:15.163Z,8.25
2024-05-09T22:28:45.036Z,7.55
2024-05-09T22:31:14.931Z,7.63
2024-05-09T22:33:47.129Z,8.07
2024-05-09T22:36:18.088Z,7.50
2024-05-09T22:38:48.636Z,8.85
2024-05-09T22:41:18.511Z,7.03
2024-05-09T22:43:51.545Z,7.82
2024-05-09T22:46:22.053Z,7.22
2024-05-09T22:48:53.093Z,7.07
2024-05-09T22:51:23.188Z,7.95
2024-05-09T22:53:53.084Z,8.60
2024-05-09T22:56:30.291Z,7.68
2024-05-09T22:59:03.280Z,9.45
2024-05-09T23:01:33.611Z,8.73
2024-05-09T23:04:04.462Z,7.53
2024-05-09T23:06:34.473Z,8.55
2024-05-09T23:09:05.465Z,8.00
2024-05-09T23:11:45.246Z,8.93
2024-05-09T23:14:37.518Z,8.85
2024-05-09T23:17:11.082Z,9.15
2024-05-09T23:19:44.002Z,9.50
2024-05-09T23:22:15.379Z,9.63
2024-05-09T23:24:48.793Z,9.02
2024-05-09T23:32:02.877Z,8.07
2024-05-09T23:34:33.267Z,9.38
2024-05-09T23:37:03.359Z,8.88
2024-05-09T23:39:33.737Z,9.20
2024-05-09T23:42:05.417Z,9.18
2024-05-09T23:44:35.699Z,11.68
2024-05-09T23:47:07.379Z,9.85
2024-05-09T23:49:38.679Z,9.20
2024-05-09T23:52:08.962Z,9.23
2024-05-09T23:54:39.224Z,8.70
2024-05-09T23:57:09.661Z,9.68
2024-05-09T23:59:39.536Z,9.88
